createdAt,value
2018-08-13T00:00:25.718Z,89.57
2018-08-13T00:01:26.192Z,89.78
2018-08-13T00:02:26.672Z,89.76
2018-08-13T00:03:27.142Z,90.09
2018-08-13T00:04:27.616Z,90.32
2018-08-13T00:05:28.094Z,90.27
2018-08-13T00:06:28.569Z,90.20
2018-08-13T00:07:29.042Z,90.24
2018-08-13T00:08:29.517Z,90.62
2018-08-13T00:09:29.994Z,90.92
2018-08-13T00:10:30.468Z,91.10
2018-08-13T00:11:30.944Z,90.85
2018-08-13T00:12:31.418Z,90.52
2018-08-13T00:13:31.897Z,90.36
2018-08-13T00:14:32.368Z,90.17
2018-08-13T00:15:32.844Z,89.95
2018-08-13T00:16:33.321Z,89.67
2018-08-13T00:17:33.810Z,89.47
2018-08-13T00:18:34.472Z,89.30
2018-08-13T00:19:34.749Z,89.25
2018-08-13T00:20:35.218Z,89.29
2018-08-13T00:21:35.694Z,89.25
2018-08-13T00:22:36.169Z,89.59
2018-08-13T00:23:36.642Z,89.87
2018-08-13T00:24:37.116Z,89.92
2018-08-13T00:25:37.591Z,89.97
2018-08-13T00:26:38.068Z,90.19
2018-08-13T00:27:38.540Z,90.40
2018-08-13T00:28:39.015Z,90.29
2018-08-13T00:29:39.487Z,90.34
2018-08-13T00:30:39.960Z,90.39
2018-08-13T00:31:40.435Z,90.40
2018-08-13T00:32:40.907Z,90.54
2018-08-13T00:33:41.384Z,90.89
2018-08-13T00:34:41.855Z,91.21
2018-08-13T00:35:42.329Z,91.36
2018-08-13T00:36:42.802Z,91.31
2018-08-13T00:37:43.276Z,91.41
2018-08-13T00:38:43.749Z,91.45
2018-08-13T00:39:44.225Z,91.29
2018-08-13T00:40:44.695Z,90.66
2018-08-13T00:41:45.169Z,90.09
2018-08-13T00:42:45.669Z,89.58
2018-08-13T00:43:46.112Z,89.37
2018-08-13T00:44:46.584Z,89.28
2018-08-13T00:45:47.059Z,89.13
2018-08-13T00:46:47.531Z,88.84
2018-08-13T00:47:48.028Z,88.80
2018-08-13T00:48:48.475Z,88.05
2018-08-13T00:49:48.953Z,87.54
2018-08-13T00:50:49.420Z,86.61
2018-08-13T00:51:49.893Z,86.98
2018-08-13T00:52:50.364Z,87.61
2018-08-13T00:53:50.835Z,88.09
2018-08-13T00:54:51.312Z,88.25
2018-08-13T00:55:51.780Z,88.74
2018-08-13T00:56:52.255Z,88.78
2018-08-13T00:57:52.724Z,88.55
2018-08-13T00:58:53.198Z,88.30
2018-08-13T00:59:53.668Z,88.40
2018-08-13T01:00:54.139Z,88.62
2018-08-13T01:01:54.610Z,88.60
2018-08-13T01:02:55.084Z,87.43
2018-08-13T01:03:55.553Z,87.71
2018-08-13T01:04:56.026Z,87.60
2018-08-13T01:05:56.501Z,87.52
2018-08-13T01:06:56.972Z,87.93
2018-08-13T01:07:57.438Z,84.83
2018-08-13T01:08:57.912Z,79.11
2018-08-13T01:09:58.383Z,78.97
2018-08-13T01:10:58.854Z,78.20
2018-08-13T01:11:59.325Z,80.42
2018-08-13T01:12:59.796Z,75.10
2018-08-13T01:14:00.266Z,72.72
2018-08-13T01:15:00.741Z,72.91
2018-08-13T01:16:01.209Z,74.38
2018-08-13T01:17:01.683Z,75.96
2018-08-13T01:18:02.152Z,74.90
2018-08-13T01:19:02.624Z,72.10
2018-08-13T01:20:03.096Z,72.10
2018-08-13T01:21:03.565Z,73.81
2018-08-13T01:22:04.037Z,73.49
2018-08-13T01:23:04.509Z,76.88
2018-08-13T01:24:04.976Z,75.84
2018-08-13T01:25:05.448Z,73.68
2018-08-13T01:26:05.921Z,75.99
2018-08-13T01:27:06.392Z,79.40
2018-08-13T01:28:06.868Z,77.91
2018-08-13T01:29:07.336Z,74.80
2018-08-13T01:30:07.809Z,75.57
2018-08-13T01:31:08.282Z,75.53
2018-08-13T01:32:08.751Z,74.71
2018-08-13T01:33:09.225Z,75.17
2018-08-13T01:34:09.700Z,76.76
2018-08-13T01:35:10.170Z,77.55
2018-08-13T01:36:10.643Z,79.55
2018-08-13T01:37:11.117Z,78.38
2018-08-13T01:38:11.592Z,81.06
2018-08-13T01:39:12.065Z,78.49
2018-08-13T01:40:12.541Z,78.37
2018-08-13T01:41:13.013Z,77.58
2018-08-13T01:42:13.489Z,79.73
2018-08-13T01:43:13.963Z,82.35
2018-08-13T01:44:14.436Z,83.80
2018-08-13T01:45:14.913Z,84.76
2018-08-13T01:46:15.388Z,85.37
2018-08-13T01:47:15.862Z,84.77
2018-08-13T01:48:16.336Z,83.98
2018-08-13T01:49:16.812Z,83.72
2018-08-13T01:50:17.285Z,82.28
2018-08-13T01:51:17.763Z,82.35
2018-08-13T01:52:18.236Z,83.27
2018-08-13T01:53:18.711Z,80.81
2018-08-13T01:54:19.188Z,81.73
2018-08-13T01:55:19.663Z,82.75
2018-08-13T01:56:20.137Z,84.46
2018-08-13T01:57:20.615Z,85.28
2018-08-13T01:58:21.088Z,86.15
2018-08-13T01:59:21.565Z,86.60
2018-08-13T02:00:22.038Z,86.45
2018-08-13T02:01:22.525Z,86.67
2018-08-13T02:02:22.985Z,86.38
2018-08-13T02:03:23.461Z,86.61
2018-08-13T02:04:23.933Z,86.47
2018-08-13T02:05:24.408Z,86.16
2018-08-13T02:06:24.887Z,82.78
2018-08-13T02:07:25.356Z,82.33
2018-08-13T02:08:25.830Z,81.03
2018-08-13T02:09:26.306Z,81.26
2018-08-13T02:10:26.782Z,77.14
2018-08-13T02:11:27.252Z,76.56
2018-08-13T02:12:27.727Z,75.67
2018-08-13T02:13:28.199Z,75.00
2018-08-13T02:14:28.670Z,75.91
2018-08-13T02:15:29.145Z,76.68
2018-08-13T02:16:29.615Z,76.46
2018-08-13T02:17:30.089Z,78.80
2018-08-13T02:18:30.563Z,76.08
2018-08-13T02:19:31.037Z,76.71
2018-08-13T02:20:31.509Z,76.10
2018-08-13T02:21:31.979Z,74.92
2018-08-13T02:22:32.454Z,74.41
2018-08-13T02:23:32.926Z,74.12
2018-08-13T02:24:33.401Z,75.02
2018-08-13T02:25:33.870Z,74.69
2018-08-13T02:26:34.342Z,74.81
2018-08-13T02:27:34.817Z,75.00
2018-08-13T02:28:35.288Z,76.28
2018-08-13T02:29:35.759Z,75.56
2018-08-13T02:30:36.230Z,75.03
2018-08-13T02:31:36.702Z,74.46
2018-08-13T02:32:37.173Z,74.82
2018-08-13T02:33:37.646Z,75.66
2018-08-13T02:34:38.117Z,75.76
2018-08-13T02:35:38.591Z,78.43
2018-08-13T02:36:39.060Z,79.85
2018-08-13T02:37:39.528Z,78.99
2018-08-13T02:38:40.006Z,76.87
2018-08-13T02:39:40.473Z,80.31
2018-08-13T02:40:40.943Z,81.73
2018-08-13T02:41:41.414Z,81.51
2018-08-13T02:42:41.883Z,82.41
2018-08-13T02:43:42.356Z,81.34
2018-08-13T02:44:42.830Z,79.80
2018-08-13T02:45:43.296Z,79.54
2018-08-13T02:46:43.771Z,80.69
2018-08-13T02:47:44.240Z,77.72
2018-08-13T02:48:44.718Z,76.24
2018-08-13T02:49:45.182Z,75.98
2018-08-13T02:50:45.654Z,76.26
2018-08-13T02:51:46.144Z,77.36
2018-08-13T02:52:46.644Z,77.92
2018-08-13T02:53:47.067Z,78.93
2018-08-13T02:54:47.538Z,80.42
2018-08-13T02:55:48.011Z,81.61
2018-08-13T02:56:48.481Z,82.46
2018-08-13T02:57:48.954Z,82.90
2018-08-13T02:58:49.428Z,83.39
2018-08-13T02:59:49.904Z,83.28
2018-08-13T03:00:50.370Z,83.14
2018-08-13T03:01:50.845Z,83.60
2018-08-13T03:02:51.318Z,83.77
2018-08-13T03:03:51.791Z,83.43
2018-08-13T03:04:52.265Z,83.49
2018-08-13T03:05:52.747Z,83.59
2018-08-13T03:06:53.212Z,83.83
2018-08-13T03:07:53.690Z,81.62
2018-08-13T03:08:54.160Z,78.60
2018-08-13T03:09:54.634Z,78.91
2018-08-13T03:10:55.109Z,81.24
2018-08-13T03:11:55.585Z,82.54
2018-08-13T03:12:56.059Z,83.12
2018-08-13T03:13:56.533Z,83.94
2018-08-13T03:14:57.011Z,84.05
2018-08-13T03:15:57.484Z,83.59
2018-08-13T03:16:57.961Z,83.11
2018-08-13T03:17:58.435Z,83.72
2018-08-13T03:18:58.909Z,84.17
2018-08-13T03:19:59.386Z,82.02
2018-08-13T03:20:59.862Z,82.23
2018-08-13T03:22:00.338Z,81.01
2018-08-13T03:23:00.809Z,79.81
2018-08-13T03:24:01.285Z,81.23
2018-08-13T03:25:01.761Z,81.75
2018-08-13T03:26:02.234Z,82.33
2018-08-13T03:27:02.709Z,82.42
2018-08-13T03:28:03.184Z,81.65
2018-08-13T03:29:03.659Z,81.72
2018-08-13T03:30:04.135Z,81.27
2018-08-13T03:31:04.606Z,79.56
2018-08-13T03:32:05.085Z,80.69
2018-08-13T03:33:05.552Z,80.88
2018-08-13T03:34:06.027Z,80.79
2018-08-13T03:35:06.507Z,82.69
2018-08-13T03:36:06.975Z,83.53
2018-08-13T03:37:07.448Z,83.44
2018-08-13T03:38:07.921Z,84.21
2018-08-13T03:39:08.395Z,84.13
2018-08-13T03:40:08.869Z,84.38
2018-08-13T03:41:09.344Z,84.29
2018-08-13T03:42:09.814Z,84.45
2018-08-13T03:43:10.287Z,84.47
2018-08-13T03:44:10.762Z,84.74
2018-08-13T03:45:11.435Z,85.02
2018-08-13T03:46:11.706Z,84.24
2018-08-13T03:47:12.176Z,83.28
2018-08-13T03:48:12.650Z,82.63
2018-08-13T03:49:13.119Z,82.61
2018-08-13T03:50:13.593Z,79.65
2018-08-13T03:51:14.069Z,79.51
2018-08-13T03:52:14.537Z,80.53
2018-08-13T03:53:15.008Z,78.35
2018-08-13T03:54:15.479Z,79.78
2018-08-13T03:55:15.952Z,81.22
2018-08-13T03:56:16.425Z,80.32
2018-08-13T03:57:16.897Z,81.66
2018-08-13T03:58:17.366Z,81.86
2018-08-13T03:59:17.836Z,80.92
2018-08-13T04:00:18.308Z,81.09
2018-08-13T04:01:18.781Z,81.38
2018-08-13T04:02:19.249Z,81.60
2018-08-13T04:03:19.721Z,80.90
2018-08-13T04:04:20.192Z,82.14
2018-08-13T04:05:20.663Z,79.88
2018-08-13T04:06:21.134Z,79.07
2018-08-13T04:07:21.604Z,78.74
2018-08-13T04:08:22.077Z,81.47
2018-08-13T04:09:22.546Z,81.57
2018-08-13T04:10:23.019Z,81.66
2018-08-13T04:11:23.488Z,81.60
2018-08-13T04:12:23.962Z,79.49
2018-08-13T04:13:24.432Z,80.61
2018-08-13T04:14:24.903Z,80.66
2018-08-13T04:15:25.376Z,80.21
2018-08-13T04:16:25.846Z,78.93
2018-08-13T04:17:26.318Z,77.00
2018-08-13T04:18:26.789Z,77.26
2018-08-13T04:19:27.263Z,78.18
2018-08-13T04:20:27.737Z,78.18
2018-08-13T04:21:28.212Z,77.04
2018-08-13T04:22:28.679Z,75.40
2018-08-13T04:23:29.153Z,76.13
2018-08-13T04:24:29.626Z,76.48
2018-08-13T04:25:30.099Z,77.10
2018-08-13T04:26:30.573Z,76.78
2018-08-13T04:27:31.048Z,76.79
2018-08-13T04:28:31.523Z,76.71
2018-08-13T04:29:31.995Z,78.04
2018-08-13T04:30:32.469Z,78.75
2018-08-13T04:31:32.946Z,77.24
2018-08-13T04:32:33.461Z,77.81
2018-08-13T04:33:33.894Z,75.34
2018-08-13T04:34:34.371Z,75.40
2018-08-13T04:35:34.846Z,73.32
2018-08-13T04:36:35.318Z,72.90
2018-08-13T04:37:35.793Z,74.06
2018-08-13T04:38:36.288Z,73.45
2018-08-13T04:39:36.746Z,74.15
2018-08-13T04:40:37.221Z,75.18
2018-08-13T04:41:37.693Z,75.24
2018-08-13T04:42:38.169Z,76.73
2018-08-13T04:43:38.650Z,76.25
2018-08-13T04:44:39.119Z,75.04
2018-08-13T04:45:39.593Z,76.63
2018-08-13T04:46:40.068Z,77.14
2018-08-13T04:47:40.545Z,77.02
2018-08-13T04:48:41.017Z,74.30
2018-08-13T04:49:41.492Z,73.44
2018-08-13T04:50:41.965Z,72.92
2018-08-13T04:51:42.440Z,71.76
2018-08-13T04:52:42.914Z,70.52
2018-08-13T04:53:43.408Z,70.13
2018-08-13T04:54:43.862Z,70.50
2018-08-13T04:55:44.334Z,70.50
2018-08-13T04:56:44.861Z,70.79
2018-08-13T04:57:45.282Z,71.02
2018-08-13T04:58:45.755Z,71.41
2018-08-13T04:59:46.230Z,71.80
2018-08-13T05:00:46.701Z,71.25
2018-08-13T05:01:47.175Z,70.15
2018-08-13T05:02:47.662Z,71.52
2018-08-13T05:03:48.124Z,71.88
2018-08-13T05:04:48.592Z,71.31
2018-08-13T05:05:49.065Z,70.39
2018-08-13T05:06:49.538Z,71.00
2018-08-13T05:07:50.013Z,71.39
2018-08-13T05:08:50.483Z,72.11
2018-08-13T05:09:50.955Z,72.72
2018-08-13T05:10:51.428Z,72.02
2018-08-13T05:11:51.898Z,71.87
2018-08-13T05:12:52.374Z,70.99
2018-08-13T05:13:52.842Z,71.03
2018-08-13T05:14:53.314Z,70.71
2018-08-13T05:15:53.785Z,71.37
2018-08-13T05:16:54.260Z,70.79
2018-08-13T05:17:54.727Z,71.02
2018-08-13T05:18:55.199Z,71.65
2018-08-13T05:19:55.671Z,71.36
2018-08-13T05:20:56.143Z,72.11
2018-08-13T05:21:56.615Z,71.87
2018-08-13T05:22:57.082Z,71.50
2018-08-13T05:23:57.556Z,71.90
2018-08-13T05:24:58.028Z,71.82
2018-08-13T05:25:58.498Z,71.35
2018-08-13T05:26:58.968Z,71.51
2018-08-13T05:27:59.440Z,71.38
2018-08-13T05:28:59.912Z,71.44
2018-08-13T05:30:00.451Z,71.65
2018-08-13T05:31:00.854Z,71.88
2018-08-13T05:32:01.330Z,73.00
2018-08-13T05:33:01.798Z,73.13
2018-08-13T05:34:02.267Z,72.51
2018-08-13T05:35:02.742Z,73.00
2018-08-13T05:36:03.211Z,72.46
2018-08-13T05:37:03.686Z,71.45
2018-08-13T05:38:04.156Z,71.43
2018-08-13T05:39:04.630Z,72.11
2018-08-13T05:40:05.102Z,71.95
2018-08-13T05:41:05.575Z,70.94
2018-08-13T05:42:06.050Z,71.70
2018-08-13T05:43:06.523Z,72.01
2018-08-13T05:44:06.995Z,72.19
2018-08-13T05:45:07.473Z,72.62
2018-08-13T05:46:07.946Z,71.98
2018-08-13T05:47:08.416Z,70.31
2018-08-13T05:48:08.898Z,70.35
2018-08-13T05:49:09.366Z,70.77
2018-08-13T05:50:09.844Z,70.26
2018-08-13T05:51:10.316Z,69.88
2018-08-13T05:52:10.789Z,69.52
2018-08-13T05:53:11.272Z,70.28
2018-08-13T05:54:11.741Z,70.08
2018-08-13T05:55:12.216Z,70.37
2018-08-13T05:56:12.691Z,70.19
2018-08-13T05:57:13.168Z,70.38
2018-08-13T05:58:13.649Z,70.85
2018-08-13T05:59:14.117Z,70.98
2018-08-13T06:00:14.595Z,71.40
2018-08-13T06:01:15.070Z,71.35
2018-08-13T06:02:15.546Z,71.45
2018-08-13T06:03:16.020Z,72.07
2018-08-13T06:04:16.496Z,72.53
2018-08-13T06:05:16.973Z,72.97
2018-08-13T06:06:17.445Z,72.73
2018-08-13T06:07:17.921Z,73.44
2018-08-13T06:08:18.395Z,73.40
2018-08-13T06:09:18.871Z,71.72
2018-08-13T06:10:19.346Z,73.05
2018-08-13T06:11:19.964Z,71.35
2018-08-13T06:12:20.296Z,72.19
2018-08-13T06:13:20.770Z,72.38
2018-08-13T06:14:21.243Z,71.86
2018-08-13T06:15:21.719Z,71.19
2018-08-13T06:16:22.193Z,71.30
2018-08-13T06:17:22.680Z,71.90
2018-08-13T06:18:23.146Z,72.67
2018-08-13T06:19:23.617Z,72.04
2018-08-13T06:20:24.089Z,70.23
2018-08-13T06:21:24.562Z,71.08
2018-08-13T06:22:25.072Z,71.27
2018-08-13T06:23:25.510Z,70.75
2018-08-13T06:24:26.005Z,71.09
2018-08-13T06:25:26.460Z,71.14
2018-08-13T06:26:26.931Z,71.82
2018-08-13T06:27:27.405Z,71.01
2018-08-13T06:28:28.287Z,72.02
2018-08-13T06:29:28.351Z,73.00
2018-08-13T06:31:29.297Z,72.13
2018-08-13T06:32:29.772Z,72.24
2018-08-13T06:33:30.249Z,72.60
2018-08-13T06:34:30.724Z,72.70
2018-08-13T06:35:31.190Z,73.67
2018-08-13T06:36:31.662Z,73.15
2018-08-13T06:37:32.136Z,72.28
2018-08-13T06:38:32.606Z,71.93
2018-08-13T06:39:33.081Z,72.92
2018-08-13T06:40:33.554Z,71.92
2018-08-13T06:41:34.029Z,72.38
2018-08-13T06:42:34.498Z,73.41
2018-08-13T06:43:34.971Z,72.98
2018-08-13T06:44:35.443Z,73.48
2018-08-13T06:45:35.916Z,74.19
2018-08-13T06:46:36.388Z,74.82
2018-08-13T06:47:36.861Z,73.94
2018-08-13T06:48:37.333Z,73.67
2018-08-13T06:49:37.805Z,72.99
2018-08-13T06:50:38.277Z,73.37
2018-08-13T06:51:38.748Z,73.09
2018-08-13T06:52:39.227Z,72.68
2018-08-13T06:53:39.694Z,72.51
2018-08-13T06:54:40.167Z,73.64
2018-08-13T06:55:40.639Z,72.21
2018-08-13T06:56:41.112Z,71.56
2018-08-13T06:57:41.584Z,70.42
2018-08-13T06:58:42.058Z,71.32
2018-08-13T06:59:42.528Z,70.62
2018-08-13T07:00:43.027Z,71.31
2018-08-13T07:01:43.474Z,70.86
2018-08-13T07:02:43.944Z,71.58
2018-08-13T07:03:44.424Z,71.18
2018-08-13T07:04:44.895Z,71.10
2018-08-13T07:05:45.363Z,70.66
2018-08-13T07:06:45.839Z,68.61
2018-08-13T07:07:46.312Z,69.21
2018-08-13T07:08:46.784Z,66.74
2018-08-13T07:09:47.256Z,67.24
2018-08-13T07:10:47.729Z,67.86
2018-08-13T07:11:48.203Z,68.40
2018-08-13T07:12:48.679Z,68.80
2018-08-13T07:13:49.154Z,69.86
2018-08-13T07:14:49.624Z,68.43
2018-08-13T07:15:50.162Z,70.11
2018-08-13T07:16:50.574Z,68.99
2018-08-13T07:17:51.048Z,69.14
2018-08-13T07:18:51.523Z,68.81
2018-08-13T07:19:52.004Z,68.98
2018-08-13T07:20:52.475Z,68.28
2018-08-13T07:21:52.951Z,68.23
2018-08-13T07:22:53.427Z,67.66
2018-08-13T07:23:53.904Z,67.42
2018-08-13T07:24:54.385Z,66.32
2018-08-13T07:25:54.861Z,65.57
2018-08-13T07:26:55.338Z,65.12
2018-08-13T07:27:55.833Z,64.11
2018-08-13T07:28:56.296Z,64.29
2018-08-13T07:29:56.776Z,65.97
2018-08-13T07:30:57.255Z,65.07
2018-08-13T07:31:57.734Z,66.70
2018-08-13T07:32:58.215Z,66.71
2018-08-13T07:33:58.700Z,66.64
2018-08-13T07:34:59.176Z,63.99
2018-08-13T07:35:59.660Z,65.03
2018-08-13T07:37:00.140Z,67.09
2018-08-13T07:38:00.624Z,66.45
2018-08-13T07:39:01.138Z,65.71
2018-08-13T07:40:01.589Z,64.64
2018-08-13T07:41:02.072Z,67.63
2018-08-13T07:42:02.554Z,67.93
2018-08-13T07:43:03.038Z,67.26
2018-08-13T07:44:03.522Z,67.39
2018-08-13T07:45:04.008Z,66.27
2018-08-13T07:46:04.491Z,66.37
2018-08-13T07:47:04.975Z,68.20
2018-08-13T07:48:05.461Z,67.73
2018-08-13T07:49:05.953Z,68.61
2018-08-13T07:50:06.434Z,69.01
2018-08-13T07:51:06.928Z,67.93
2018-08-13T07:52:07.405Z,68.54
2018-08-13T07:53:07.893Z,67.00
2018-08-13T07:54:08.378Z,68.54
2018-08-13T07:55:08.868Z,68.21
2018-08-13T07:56:09.352Z,68.77
2018-08-13T07:57:09.842Z,67.26
2018-08-13T07:58:10.381Z,69.34
2018-08-13T07:59:10.817Z,67.58
2018-08-13T08:00:11.306Z,66.74
2018-08-13T08:01:11.795Z,66.98
2018-08-13T08:02:12.286Z,67.14
2018-08-13T08:03:12.773Z,68.36
2018-08-13T08:04:13.261Z,69.00
2018-08-13T08:05:13.751Z,66.85
2018-08-13T08:06:14.242Z,68.39
2018-08-13T08:07:14.733Z,67.70
2018-08-13T08:08:15.226Z,67.28
2018-08-13T08:09:15.798Z,67.12
2018-08-13T08:10:16.207Z,66.43
2018-08-13T08:11:16.698Z,66.21
2018-08-13T08:12:17.186Z,66.55
2018-08-13T08:13:17.676Z,67.94
2018-08-13T08:14:18.170Z,68.48
2018-08-13T08:15:18.660Z,69.45
2018-08-13T08:16:19.153Z,68.28
2018-08-13T08:17:19.645Z,67.57
2018-08-13T08:18:20.139Z,66.93
2018-08-13T08:19:20.629Z,67.72
2018-08-13T08:20:21.124Z,68.10
2018-08-13T08:21:21.677Z,68.70
2018-08-13T08:22:22.112Z,68.12
2018-08-13T08:23:22.602Z,67.35
2018-08-13T08:24:23.095Z,69.19
2018-08-13T08:25:23.589Z,67.39
2018-08-13T08:26:24.084Z,66.85
2018-08-13T08:27:24.575Z,66.95
2018-08-13T08:28:25.065Z,67.34
2018-08-13T08:29:25.600Z,67.69
2018-08-13T08:30:26.054Z,67.52
2018-08-13T08:31:26.543Z,68.21
2018-08-13T08:32:27.034Z,68.28
2018-08-13T08:33:27.524Z,68.63
2018-08-13T08:34:28.015Z,69.90
2018-08-13T08:35:28.505Z,68.65
2018-08-13T08:36:28.995Z,68.63
2018-08-13T08:37:29.484Z,68.92
2018-08-13T08:38:29.974Z,69.93
2018-08-13T08:39:30.462Z,69.13
2018-08-13T08:40:31.005Z,70.02
2018-08-13T08:41:31.441Z,68.86
2018-08-13T08:42:31.928Z,69.35
2018-08-13T08:43:32.419Z,68.76
2018-08-13T08:44:32.907Z,67.80
2018-08-13T08:45:33.397Z,68.34
2018-08-13T08:46:33.887Z,68.29
2018-08-13T08:47:34.376Z,68.56
2018-08-13T08:48:34.868Z,69.21
2018-08-13T08:49:35.359Z,68.36
2018-08-13T08:50:35.846Z,68.35
2018-08-13T08:51:36.334Z,67.31
2018-08-13T08:52:36.828Z,67.13
2018-08-13T08:53:37.345Z,66.91
2018-08-13T08:54:37.806Z,69.15
2018-08-13T08:55:38.295Z,69.47
2018-08-13T08:56:38.787Z,69.63
2018-08-13T08:57:39.273Z,67.29
2018-08-13T08:58:39.765Z,71.09
2018-08-13T08:59:40.254Z,67.20
2018-08-13T09:00:40.794Z,66.41
2018-08-13T09:01:41.229Z,70.49
2018-08-13T09:02:41.716Z,67.20
2018-08-13T09:03:42.204Z,69.58
2018-08-13T09:04:42.691Z,69.31
2018-08-13T09:05:43.178Z,71.17
2018-08-13T09:06:43.665Z,69.85
2018-08-13T09:07:44.156Z,67.60
2018-08-13T09:08:44.639Z,66.46
2018-08-13T09:09:45.124Z,65.09
2018-08-13T09:10:45.610Z,67.39
2018-08-13T09:11:46.095Z,68.72
2018-08-13T09:12:46.601Z,70.47
2018-08-13T09:13:47.065Z,72.05
2018-08-13T09:14:47.550Z,72.77
2018-08-13T09:15:48.034Z,74.75
2018-08-13T09:16:48.520Z,76.27
2018-08-13T09:17:49.002Z,77.51
2018-08-13T09:18:49.540Z,77.44
2018-08-13T09:19:49.982Z,77.22
2018-08-13T09:20:50.453Z,78.00
2018-08-13T09:21:50.935Z,79.11
2018-08-13T09:22:51.419Z,79.03
2018-08-13T09:23:51.902Z,76.89
2018-08-13T09:24:52.384Z,77.49
2018-08-13T09:25:52.868Z,76.23
2018-08-13T09:26:53.350Z,76.30
2018-08-13T09:27:53.829Z,76.59
2018-08-13T09:28:54.313Z,75.54
2018-08-13T09:29:54.797Z,75.90
2018-08-13T09:30:55.276Z,75.98
2018-08-13T09:31:55.761Z,76.64
2018-08-13T09:32:56.442Z,76.60
2018-08-13T09:33:56.775Z,76.40
2018-08-13T09:34:57.204Z,76.32
2018-08-13T09:35:57.684Z,76.19
2018-08-13T09:36:58.165Z,75.83
2018-08-13T09:37:58.648Z,75.57
2018-08-13T09:38:59.131Z,76.95
2018-08-13T09:39:59.608Z,76.77
2018-08-13T09:41:00.090Z,76.36
2018-08-13T09:42:00.572Z,78.51
2018-08-13T09:43:01.051Z,80.36
2018-08-13T09:44:01.531Z,78.96
2018-08-13T09:45:02.011Z,78.36
2018-08-13T09:46:02.494Z,81.76
2018-08-13T09:47:02.969Z,83.93
2018-08-13T09:49:03.931Z,79.68
2018-08-13T09:50:04.411Z,80.39
2018-08-13T09:51:04.892Z,80.56
2018-08-13T09:52:05.368Z,81.75
2018-08-13T09:53:05.849Z,81.79
2018-08-13T09:54:06.333Z,80.87
2018-08-13T09:55:06.808Z,80.42
2018-08-13T09:56:07.288Z,81.53
2018-08-13T09:57:07.804Z,81.98
2018-08-13T09:58:08.248Z,81.51
2018-08-13T09:59:08.726Z,81.24
2018-08-13T10:00:09.251Z,82.18
2018-08-13T10:01:09.686Z,81.29
2018-08-13T10:02:10.166Z,80.04
2018-08-13T10:03:10.644Z,79.70
2018-08-13T10:04:11.123Z,79.32
2018-08-13T10:05:11.600Z,80.25
2018-08-13T10:06:12.078Z,80.75
2018-08-13T10:07:12.560Z,81.03
2018-08-13T10:08:13.043Z,80.32
2018-08-13T10:09:13.521Z,81.79
2018-08-13T10:10:13.998Z,82.46
2018-08-13T10:11:14.473Z,82.30
2018-08-13T10:12:14.955Z,83.07
2018-08-13T10:13:15.429Z,83.88
2018-08-13T10:14:15.909Z,85.54
2018-08-13T10:15:16.388Z,84.94
2018-08-13T10:16:17.066Z,84.99
2018-08-13T10:17:17.345Z,85.06
2018-08-13T10:18:17.823Z,84.66
2018-08-13T10:19:18.300Z,84.33
2018-08-13T10:20:18.777Z,85.26
2018-08-13T10:21:19.256Z,85.97
2018-08-13T10:22:19.737Z,85.60
2018-08-13T10:23:20.212Z,85.52
2018-08-13T10:24:20.689Z,85.94
2018-08-13T10:25:21.171Z,86.22
2018-08-13T10:26:21.646Z,86.13
2018-08-13T10:27:22.124Z,86.40
2018-08-13T10:28:22.602Z,87.02
2018-08-13T10:29:23.079Z,86.73
2018-08-13T10:30:23.562Z,86.89
2018-08-13T10:31:24.038Z,87.06
2018-08-13T10:32:24.515Z,87.23
2018-08-13T10:33:24.991Z,86.69
2018-08-13T10:34:25.488Z,87.53
2018-08-13T10:35:25.949Z,87.58
2018-08-13T10:36:26.423Z,87.41
2018-08-13T10:37:26.957Z,87.31
2018-08-13T10:38:27.378Z,87.40
2018-08-13T10:39:27.858Z,86.80
2018-08-13T10:40:28.339Z,86.48
2018-08-13T10:41:28.812Z,86.76
2018-08-13T10:42:29.290Z,87.00
2018-08-13T10:43:29.814Z,87.51
2018-08-13T10:44:30.242Z,87.83
2018-08-13T10:45:30.727Z,88.04
2018-08-13T10:46:31.199Z,88.18
2018-08-13T10:47:31.679Z,88.05
2018-08-13T10:48:32.154Z,87.89
2018-08-13T10:49:32.672Z,88.22
2018-08-13T10:50:33.111Z,88.09
2018-08-13T10:51:33.586Z,87.69
2018-08-13T10:52:34.063Z,87.74
2018-08-13T10:53:34.541Z,87.73
2018-08-13T10:54:35.016Z,88.26
2018-08-13T10:55:35.496Z,88.29
2018-08-13T10:56:35.971Z,88.35
2018-08-13T10:57:36.448Z,88.01
2018-08-13T10:58:36.924Z,88.01
2018-08-13T10:59:37.408Z,88.32
2018-08-13T11:00:37.879Z,88.12
2018-08-13T11:01:38.355Z,88.00
2018-08-13T11:02:38.834Z,87.00
2018-08-13T11:03:39.312Z,84.90
2018-08-13T11:04:39.787Z,83.39
2018-08-13T11:05:40.265Z,81.92
2018-08-13T11:06:40.741Z,83.29
2018-08-13T11:07:41.221Z,83.71
2018-08-13T11:08:41.695Z,83.14
2018-08-13T11:09:42.170Z,82.46
2018-08-13T11:10:42.650Z,81.23
2018-08-13T11:11:43.125Z,82.04
2018-08-13T11:12:43.606Z,82.71
2018-08-13T11:13:44.079Z,83.23
2018-08-13T11:14:44.555Z,84.05
2018-08-13T11:15:45.033Z,84.55
2018-08-13T11:16:45.509Z,85.19
2018-08-13T11:17:45.992Z,84.98
2018-08-13T11:18:46.466Z,85.08
2018-08-13T11:19:46.940Z,85.15
2018-08-13T11:20:47.415Z,84.86
2018-08-13T11:21:47.924Z,85.27
2018-08-13T11:22:48.369Z,85.77
2018-08-13T11:23:48.855Z,86.19
2018-08-13T11:24:49.322Z,86.64
2018-08-13T11:25:49.799Z,86.21
2018-08-13T11:26:50.277Z,85.10
2018-08-13T11:27:50.752Z,86.23
2018-08-13T11:28:51.228Z,87.09
2018-08-13T11:29:51.707Z,86.85
2018-08-13T11:30:52.182Z,87.31
2018-08-13T11:31:52.658Z,87.58
2018-08-13T11:32:53.135Z,86.32
2018-08-13T11:33:53.609Z,86.01
2018-08-13T11:34:54.139Z,85.59
2018-08-13T11:35:54.565Z,85.10
2018-08-13T11:36:55.039Z,84.61
2018-08-13T11:37:55.516Z,83.74
2018-08-13T11:38:55.993Z,84.46
2018-08-13T11:39:56.469Z,85.72
2018-08-13T11:40:56.944Z,86.08
2018-08-13T11:41:57.423Z,86.54
2018-08-13T11:42:57.900Z,86.47
2018-08-13T11:43:58.377Z,86.53
2018-08-13T11:44:58.852Z,87.22
2018-08-13T11:45:59.328Z,86.89
2018-08-13T11:46:59.805Z,87.23
2018-08-13T11:48:00.280Z,87.75
2018-08-13T11:49:00.756Z,88.58
2018-08-13T11:50:01.232Z,88.88
2018-08-13T11:51:01.715Z,89.29
2018-08-13T11:52:02.190Z,89.53
2018-08-13T11:53:02.662Z,89.28
2018-08-13T11:54:03.140Z,89.54
2018-08-13T11:55:03.614Z,90.18
2018-08-13T11:56:04.091Z,90.70
2018-08-13T11:57:04.566Z,90.90
2018-08-13T11:58:05.045Z,90.88
2018-08-13T11:59:05.519Z,91.04
2018-08-13T12:00:06.045Z,91.50
2018-08-13T12:01:06.546Z,91.78
2018-08-13T12:02:06.976Z,91.91
2018-08-13T12:03:07.424Z,92.08
2018-08-13T12:04:07.904Z,92.10
2018-08-13T12:05:08.380Z,92.12
2018-08-13T12:06:08.853Z,91.97
2018-08-13T12:07:09.330Z,92.22
2018-08-13T12:08:09.805Z,92.25
2018-08-13T12:09:10.283Z,92.20
2018-08-13T12:10:10.757Z,92.24
2018-08-13T12:11:11.232Z,92.29
2018-08-13T12:12:11.709Z,92.50
2018-08-13T12:13:12.184Z,92.47
2018-08-13T12:14:12.677Z,92.59
2018-08-13T12:15:13.136Z,92.69
2018-08-13T12:16:13.614Z,92.75
2018-08-13T12:17:14.088Z,93.02
2018-08-13T12:18:14.565Z,93.31
2018-08-13T12:19:15.040Z,93.40
2018-08-13T12:20:15.514Z,93.64
2018-08-13T12:21:15.993Z,93.71
2018-08-13T12:22:16.474Z,93.78
2018-08-13T12:23:16.944Z,93.79
2018-08-13T12:24:17.417Z,93.87
2018-08-13T12:25:17.897Z,94.00
2018-08-13T12:26:18.375Z,94.10
2018-08-13T12:27:18.846Z,94.14
2018-08-13T12:28:19.324Z,94.18
2018-08-13T12:29:19.801Z,94.25
2018-08-13T12:30:20.272Z,94.30
2018-08-13T12:31:20.749Z,94.29
2018-08-13T12:32:21.224Z,94.32
2018-08-13T12:33:21.706Z,94.43
2018-08-13T12:34:22.174Z,94.39
2018-08-13T12:35:22.651Z,94.42
2018-08-13T12:36:23.127Z,94.39
2018-08-13T12:37:23.601Z,94.28
2018-08-13T12:38:24.082Z,94.45
2018-08-13T12:39:24.554Z,94.55
2018-08-13T12:40:25.033Z,94.69
2018-08-13T12:41:25.504Z,94.75
2018-08-13T12:42:25.981Z,94.62
2018-08-13T12:43:26.455Z,94.58
2018-08-13T12:44:26.932Z,94.43
2018-08-13T12:45:27.408Z,94.46
2018-08-13T12:46:27.885Z,94.59
2018-08-13T12:47:28.359Z,94.75
2018-08-13T12:48:28.834Z,94.87
2018-08-13T12:49:29.317Z,94.75
2018-08-13T12:50:29.784Z,94.38
2018-08-13T12:51:30.260Z,94.19
2018-08-13T12:52:30.736Z,94.23
2018-08-13T12:53:31.211Z,94.19
2018-08-13T12:54:31.687Z,94.13
2018-08-13T12:55:32.163Z,94.23
2018-08-13T12:56:32.637Z,94.30
2018-08-13T12:57:33.117Z,94.26
2018-08-13T12:58:33.589Z,94.04
2018-08-13T12:59:34.065Z,94.39
2018-08-13T13:00:34.540Z,94.68